sensor_id;sensor_type;location;lat;lon;timestamp;pressure;altitude;pressure_sealevel;temperature;humidity
21129;BME280;10722;51.910;8.352;2022-11-20T00:00:28;100609.44;;;-4.09;100.00
21129;BME280;10722;51.910;8.352;2022-11-20T00:03:13;100606.94;;;-3.97;100.00
21129;BME280;10722;51.910;8.352;2022-11-20T00:06:03;100600.03;;;-3.88;100.00
21129;BME280;10722;51.910;8.352;2022-11-20T00:08:49;100602.00;;;-3.84;100.00
21129;BME280;10722;51.910;8.352;2022-11-20T00:11:35;100581.22;;;-3.92;100.00
21129;BME280;10722;51.910;8.352;2022-11-20T00:14:20;100571.41;;;-4.22;100.00
21129;BME280;10722;51.910;8.352;2022-11-20T00:17:06;100579.31;;;-4.30;100.00
21129;BME280;10722;51.910;8.352;2022-11-20T00:19:50;100579.78;;;-4.12;100.00
21129;BME280;10722;51.910;8.352;2022-11-20T00:22:36;100576.56;;;-4.21;100.00
21129;BME280;10722;51.910;8.352;2022-11-20T00:25:21;100568.88;;;-4.22;100.00
21129;BME280;10722;51.910;8.352;2022-11-20T00:28:06;100567.13;;;-4.23;100.00
21129;BME280;10722;51.910;8.352;2022-11-20T00:30:52;100559.75;;;-4.66;100.00
21129;BME280;10722;51.910;8.352;2022-11-20T00:33:37;100570.00;;;-4.86;100.00
21129;BME280;10722;51.910;8.352;2022-11-20T00:36:24;100570.69;;;-4.77;100.00
21129;BME280;10722;51.910;8.352;2022-11-20T00:39:10;100585.69;;;-4.57;100.00
21129;BME280;10722;51.910;8.352;2022-11-20T00:41:54;100594.66;;;-4.38;100.00
21129;BME280;10722;51.910;8.352;2022-11-20T00:44:40;100590.91;;;-4.43;100.00
21129;BME280;10722;51.910;8.352;2022-11-20T00:47:26;100589.50;;;-4.28;100.00
21129;BME280;10722;51.910;8.352;2022-11-20T00:50:11;100591.75;;;-4.21;100.00
21129;BME280;10722;51.910;8.352;2022-11-20T00:52:57;100591.66;;;-4.11;100.00
21129;BME280;10722;51.910;8.352;2022-11-20T00:55:42;100594.63;;;-4.04;100.00
21129;BME280;10722;51.910;8.352;2022-11-20T00:58:33;100584.19;;;-3.97;100.00
21129;BME280;10722;51.910;8.352;2022-11-20T01:01:20;100568.09;;;-4.33;100.00
21129;BME280;10722;51.910;8.352;2022-11-20T01:04:06;100579.25;;;-4.53;100.00
21129;BME280;10722;51.910;8.352;2022-11-20T01:06:51;100574.00;;;-4.44;100.00
21129;BME280;10722;51.910;8.352;2022-11-20T01:09:36;100579.19;;;-4.31;100.00
21129;BME280;10722;51.910;8.352;2022-11-20T01:12:22;100593.47;;;-4.20;100.00
21129;BME280;10722;51.910;8.352;2022-11-20T01:15:07;100582.25;;;-4.35;100.00
21129;BME280;10722;51.910;8.352;2022-11-20T01:17:52;100586.97;;;-4.62;100.00
21129;BME280;10722;51.910;8.352;2022-11-20T01:20:38;100582.03;;;-4.72;100.00
21129;BME280;10722;51.910;8.352;2022-11-20T01:23:23;100582.53;;;-4.76;100.00
21129;BME280;10722;51.910;8.352;2022-11-20T01:26:13;100589.66;;;-4.82;100.00
21129;BME280;10722;51.910;8.352;2022-11-20T01:28:59;100595.75;;;-4.90;100.00
21129;BME280;10722;51.910;8.352;2022-11-20T01:31:45;100602.56;;;-4.67;100.00
21129;BME280;10722;51.910;8.352;2022-11-20T01:34:30;100595.78;;;-4.57;100.00
21129;BME280;10722;51.910;8.352;2022-11-20T01:37:16;100598.34;;;-5.01;100.00
21129;BME280;10722;51.910;8.352;2022-11-20T01:40:01;100590.56;;;-5.04;100.00
21129;BME280;10722;51.910;8.352;2022-11-20T01:42:53;100580.88;;;-5.09;100.00
21129;BME280;10722;51.910;8.352;2022-11-20T01:46:16;100587.47;;;-5.00;100.00
21129;BME280;10722;51.910;8.352;2022-11-20T01:49:08;100585.00;;;-4.88;100.00
21129;BME280;10722;51.910;8.352;2022-11-20T01:52:02;100582.09;;;-4.82;100.00
21129;BME280;10722;51.910;8.352;2022-11-20T01:57:38;100574.25;;;-5.51;100.00
21129;BME280;10722;51.910;8.352;2022-11-20T02:00:26;100576.28;;;-5.57;100.00
21129;BME280;10722;51.910;8.352;2022-11-20T02:03:19;100573.09;;;-5.55;100.00
21129;BME280;10722;51.910;8.352;2022-11-20T02:06:16;100583.56;;;-5.50;100.00
21129;BME280;10722;51.910;8.352;2022-11-20T02:09:02;100586.59;;;-5.54;100.00
21129;BME280;10722;51.910;8.352;2022-11-20T02:11:47;100592.13;;;-5.48;100.00
21129;BME280;10722;51.910;8.352;2022-11-20T02:14:32;100585.03;;;-5.42;100.00
21129;BME280;10722;51.910;8.352;2022-11-20T02:17:17;100585.75;;;-5.33;100.00
21129;BME280;10722;51.910;8.352;2022-11-20T02:20:03;100578.59;;;-5.38;100.00
21129;BME280;10722;51.910;8.352;2022-11-20T02:22:57;100571.03;;;-5.38;100.00
21129;BME280;10722;51.910;8.352;2022-11-20T02:25:45;100569.63;;;-5.35;100.00
21129;BME280;10722;51.910;8.352;2022-11-20T02:28:32;100567.34;;;-5.32;100.00
21129;BME280;10722;51.910;8.352;2022-11-20T02:31:17;100555.84;;;-5.28;100.00
21129;BME280;10722;51.910;8.352;2022-11-20T02:34:02;100557.59;;;-5.27;100.00
21129;BME280;10722;51.910;8.352;2022-11-20T02:36:48;100549.41;;;-5.25;100.00
21129;BME280;10722;51.910;8.352;2022-11-20T02:39:34;100550.56;;;-5.31;100.00
21129;BME280;10722;51.910;8.352;2022-11-20T02:42:19;100559.25;;;-5.28;100.00
21129;BME280;10722;51.910;8.352;2022-11-20T02:45:05;100539.78;;;-5.41;100.00
21129;BME280;10722;51.910;8.352;2022-11-20T02:47:52;100537.72;;;-5.34;100.00
21129;BME280;10722;51.910;8.352;2022-11-20T02:50:38;100534.66;;;-5.30;100.00
21129;BME280;10722;51.910;8.352;2022-11-20T02:53:23;100528.06;;;-5.40;100.00
21129;BME280;10722;51.910;8.352;2022-11-20T02:56:08;100518.44;;;-5.34;100.00
21129;BME280;10722;51.910;8.352;2022-11-20T02:58:53;100523.06;;;-5.28;100.00
21129;BME280;10722;51.910;8.352;2022-11-20T03:01:38;100513.75;;;-5.29;100.00
21129;BME280;10722;51.910;8.352;2022-11-20T03:04:24;100508.34;;;-5.34;100.00
21129;BME280;10722;51.910;8.352;2022-11-20T03:07:09;100518.25;;;-5.47;100.00
21129;BME280;10722;51.910;8.352;2022-11-20T03:09:54;100517.91;;;-5.52;100.00
21129;BME280;10722;51.910;8.352;2022-11-20T03:12:40;100519.59;;;-5.63;100.00
21129;BME280;10722;51.910;8.352;2022-11-20T03:15:25;100527.91;;;-5.42;100.00
21129;BME280;10722;51.910;8.352;2022-11-20T03:18:13;100521.88;;;-5.44;100.00
21129;BME280;10722;51.910;8.352;2022-11-20T03:20:58;100518.31;;;-5.57;100.00
21129;BME280;10722;51.910;8.352;2022-11-20T03:23:44;100516.75;;;-5.55;100.00
21129;BME280;10722;51.910;8.352;2022-11-20T03:26:30;100513.38;;;-5.56;100.00
21129;BME280;10722;51.910;8.352;2022-11-20T03:29:14;100514.91;;;-5.36;100.00
21129;BME280;10722;51.910;8.352;2022-11-20T03:31:59;100508.81;;;-5.28;100.00
21129;BME280;10722;51.910;8.352;2022-11-20T03:34:45;100495.97;;;-5.31;100.00
21129;BME280;10722;51.910;8.352;2022-11-20T03:37:30;100495.69;;;-5.46;100.00
21129;BME280;10722;51.910;8.352;2022-11-20T03:40:15;100500.66;;;-5.35;100.00
21129;BME280;10722;51.910;8.352;2022-11-20T03:43:00;100507.53;;;-5.23;100.00
21129;BME280;10722;51.910;8.352;2022-11-20T03:45:45;100508.41;;;-5.22;100.00
21129;BME280;10722;51.910;8.352;2022-11-20T03:48:31;100503.13;;;-5.47;100.00
21129;BME280;10722;51.910;8.352;2022-11-20T03:51:27;100495.03;;;-5.75;100.00
21129;BME280;10722;51.910;8.352;2022-11-20T03:54:13;100491.09;;;-5.61;100.00
21129;BME280;10722;51.910;8.352;2022-11-20T03:56:58;100483.84;;;-5.79;100.00
21129;BME280;10722;51.910;8.352;2022-11-20T03:59:44;100496.94;;;-5.83;100.00
21129;BME280;10722;51.910;8.352;2022-11-20T04:02:30;100493.66;;;-5.94;100.00
21129;BME280;10722;51.910;8.352;2022-11-20T04:05:15;100498.34;;;-5.87;100.00
21129;BME280;10722;51.910;8.352;2022-11-20T04:08:00;100490.06;;;-5.86;100.00
21129;BME280;10722;51.910;8.352;2022-11-20T04:10:45;100489.56;;;-6.24;100.00
21129;BME280;10722;51.910;8.352;2022-11-20T04:13:30;100490.97;;;-6.27;100.00
21129;BME280;10722;51.910;8.352;2022-11-20T04:16:16;100505.00;;;-6.09;100.00
21129;BME280;10722;51.910;8.352;2022-11-20T04:19:03;100510.69;;;-5.79;100.00
21129;BME280;10722;51.910;8.352;2022-11-20T04:21:49;100504.88;;;-5.78;100.00
21129;BME280;10722;51.910;8.352;2022-11-20T04:24:34;100503.06;;;-5.91;100.00
21129;BME280;10722;51.910;8.352;2022-11-20T04:27:19;100500.59;;;-6.01;100.00
21129;BME280;10722;51.910;8.352;2022-11-20T04:30:04;100507.69;;;-5.86;100.00
21129;BME280;10722;51.910;8.352;2022-11-20T04:32:49;100506.25;;;-5.94;100.00
21129;BME280;10722;51.910;8.352;2022-11-20T04:35:35;100509.31;;;-5.86;100.00
21129;BME280;10722;51.910;8.352;2022-11-20T04:38:21;100498.97;;;-5.79;100.00
21129;BME280;10722;51.910;8.352;2022-11-20T04:41:07;100489.78;;;-5.89;100.00
21129;BME280;10722;51.910;8.352;2022-11-20T04:43:56;100497.53;;;-5.97;100.00
21129;BME280;10722;51.910;8.352;2022-11-20T04:46:42;100490.03;;;-6.07;100.00
21129;BME280;10722;51.910;8.352;2022-11-20T04:49:27;100493.19;;;-6.10;100.00
21129;BME280;10722;51.910;8.352;2022-11-20T04:52:13;100492.91;;;-6.03;100.00
21129;BME280;10722;51.910;8.352;2022-11-20T04:54:58;100482.56;;;-5.96;100.00
21129;BME280;10722;51.910;8.352;2022-11-20T04:57:43;100480.16;;;-5.94;100.00
21129;BME280;10722;51.910;8.352;2022-11-20T05:00:28;100485.75;;;-5.87;100.00
21129;BME280;10722;51.910;8.352;2022-11-20T05:03:14;100484.06;;;-5.98;100.00
21129;BME280;10722;51.910;8.352;2022-11-20T05:06:00;100482.25;;;-6.21;100.00
21129;BME280;10722;51.910;8.352;2022-11-20T05:08:46;100483.41;;;-6.27;100.00
21129;BME280;10722;51.910;8.352;2022-11-20T05:11:31;100497.22;;;-6.22;100.00
21129;BME280;10722;51.910;8.352;2022-11-20T05:14:17;100495.09;;;-6.18;100.00
21129;BME280;10722;51.910;8.352;2022-11-20T05:17:02;100500.28;;;-5.94;100.00
21129;BME280;10722;51.910;8.352;2022-11-20T05:19:47;100498.50;;;-5.85;100.00
21129;BME280;10722;51.910;8.352;2022-11-20T05:22:37;100492.06;;;-5.92;100.00
21129;BME280;10722;51.910;8.352;2022-11-20T05:25:22;100488.47;;;-5.95;100.00
21129;BME280;10722;51.910;8.352;2022-11-20T05:28:08;100489.28;;;-5.84;100.00
21129;BME280;10722;51.910;8.352;2022-11-20T05:30:53;100489.06;;;-5.88;100.00
21129;BME280;10722;51.910;8.352;2022-11-20T05:33:42;100494.34;;;-5.84;100.00
21129;BME280;10722;51.910;8.352;2022-11-20T05:36:27;100491.50;;;-5.77;100.00
21129;BME280;10722;51.910;8.352;2022-11-20T05:39:12;100485.88;;;-5.53;100.00
21129;BME280;10722;51.910;8.352;2022-11-20T05:41:57;100481.28;;;-5.47;100.00
21129;BME280;10722;51.910;8.352;2022-11-20T05:44:43;100478.25;;;-5.65;100.00
21129;BME280;10722;51.910;8.352;2022-11-20T05:47:31;100479.91;;;-5.65;100.00
21129;BME280;10722;51.910;8.352;2022-11-20T05:50:17;100482.28;;;-5.67;100.00
21129;BME280;10722;51.910;8.352;2022-11-20T05:53:02;100483.94;;;-5.77;100.00
21129;BME280;10722;51.910;8.352;2022-11-20T05:55:56;100481.84;;;-5.83;100.00
21129;BME280;10722;51.910;8.352;2022-11-20T05:58:41;100486.13;;;-5.82;100.00
21129;BME280;10722;51.910;8.352;2022-11-20T06:01:26;100487.25;;;-5.78;100.00
21129;BME280;10722;51.910;8.352;2022-11-20T06:04:12;100485.84;;;-5.75;100.00
21129;BME280;10722;51.910;8.352;2022-11-20T06:06:57;100489.75;;;-5.68;100.00
21129;BME280;10722;51.910;8.352;2022-11-20T06:09:43;100487.16;;;-5.58;100.00
21129;BME280;10722;51.910;8.352;2022-11-20T06:12:31;100492.56;;;-5.53;100.00
21129;BME280;10722;51.910;8.352;2022-11-20T06:15:16;100480.09;;;-5.52;100.00
21129;BME280;10722;51.910;8.352;2022-11-20T06:18:01;100479.50;;;-5.37;100.00
21129;BME280;10722;51.910;8.352;2022-11-20T06:20:46;100482.31;;;-5.45;100.00
21129;BME280;10722;51.910;8.352;2022-11-20T06:23:33;100480.97;;;-5.51;100.00
21129;BME280;10722;51.910;8.352;2022-11-20T06:26:20;100491.09;;;-5.39;100.00
21129;BME280;10722;51.910;8.352;2022-11-20T06:29:06;100495.50;;;-5.15;100.00
21129;BME280;10722;51.910;8.352;2022-11-20T06:31:51;100493.72;;;-5.16;100.00
21129;BME280;10722;51.910;8.352;2022-11-20T06:34:36;100500.25;;;-5.08;100.00
21129;BME280;10722;51.910;8.352;2022-11-20T06:37:21;100497.63;;;-5.09;100.00
21129;BME280;10722;51.910;8.352;2022-11-20T06:40:07;100495.88;;;-4.99;100.00
21129;BME280;10722;51.910;8.352;2022-11-20T06:42:53;100492.00;;;-4.83;100.00
21129;BME280;10722;51.910;8.352;2022-11-20T06:45:39;100480.81;;;-4.87;100.00
21129;BME280;10722;51.910;8.352;2022-11-20T06:48:28;100483.19;;;-4.88;100.00
21129;BME280;10722;51.910;8.352;2022-11-20T06:51:13;100480.38;;;-4.81;100.00
21129;BME280;10722;51.910;8.352;2022-11-20T06:53:59;100480.13;;;-4.84;100.00
21129;BME280;10722;51.910;8.352;2022-11-20T06:56:48;100483.06;;;-4.90;100.00
21129;BME280;10722;51.910;8.352;2022-11-20T06:59:33;100486.28;;;-4.92;100.00
21129;BME280;10722;51.910;8.352;2022-11-20T07:02:19;100487.19;;;-4.80;100.00
21129;BME280;10722;51.910;8.352;2022-11-20T07:05:04;100494.25;;;-4.64;100.00
21129;BME280;10722;51.910;8.352;2022-11-20T07:07:49;100491.38;;;-4.69;100.00
21129;BME280;10722;51.910;8.352;2022-11-20T07:10:35;100492.00;;;-4.83;100.00
21129;BME280;10722;51.910;8.352;2022-11-20T07:13:20;100502.19;;;-4.82;100.00
21129;BME280;10722;51.910;8.352;2022-11-20T07:16:07;100505.53;;;-4.71;100.00
21129;BME280;10722;51.910;8.352;2022-11-20T07:18:52;100512.19;;;-4.83;100.00
21129;BME280;10722;51.910;8.352;2022-11-20T07:21:37;100509.22;;;-4.89;100.00
21129;BME280;10722;51.910;8.352;2022-11-20T07:24:22;100515.31;;;-4.76;100.00
21129;BME280;10722;51.910;8.352;2022-11-20T07:27:07;100523.31;;;-4.69;100.00
21129;BME280;10722;51.910;8.352;2022-11-20T07:29:52;100522.91;;;-4.64;100.00
21129;BME280;10722;51.910;8.352;2022-11-20T07:32:38;100522.56;;;-4.57;100.00
21129;BME280;10722;51.910;8.352;2022-11-20T07:35:24;100521.91;;;-4.54;100.00
21129;BME280;10722;51.910;8.352;2022-11-20T07:38:09;100522.28;;;-4.38;100.00
21129;BME280;10722;51.910;8.352;2022-11-20T07:40:55;100527.25;;;-4.28;100.00
21129;BME280;10722;51.910;8.352;2022-11-20T07:43:40;100522.44;;;-4.13;100.00
21129;BME280;10722;51.910;8.352;2022-11-20T07:46:26;100521.00;;;-3.97;100.00
21129;BME280;10722;51.910;8.352;2022-11-20T07:49:11;100511.56;;;-4.00;100.00
21129;BME280;10722;51.910;8.352;2022-11-20T07:51:56;100502.00;;;-3.80;100.00
21129;BME280;10722;51.910;8.352;2022-11-20T07:54:48;100497.38;;;-3.98;100.00
21129;BME280;10722;51.910;8.352;2022-11-20T07:57:33;100499.81;;;-3.88;100.00
21129;BME280;10722;51.910;8.352;2022-11-20T08:00:18;100497.28;;;-3.88;100.00
21129;BME280;10722;51.910;8.352;2022-11-20T08:03:04;100491.44;;;-3.87;100.00
21129;BME280;10722;51.910;8.352;2022-11-20T08:05:49;100495.28;;;-3.68;100.00
21129;BME280;10722;51.910;8.352;2022-11-20T08:08:34;100490.75;;;-3.61;100.00
21129;BME280;10722;51.910;8.352;2022-11-20T08:11:26;100484.41;;;-3.67;100.00
21129;BME280;10722;51.910;8.352;2022-11-20T08:14:11;100486.25;;;-3.65;100.00
21129;BME280;10722;51.910;8.352;2022-11-20T08:16:56;100485.69;;;-3.49;99.74
21129;BME280;10722;51.910;8.352;2022-11-20T08:19:41;100469.41;;;-3.52;99.86
21129;BME280;10722;51.910;8.352;2022-11-20T08:22:28;100466.41;;;-3.47;99.83
21129;BME280;10722;51.910;8.352;2022-11-20T08:25:13;100460.25;;;-3.39;99.62
21129;BME280;10722;51.910;8.352;2022-11-20T08:27:59;100453.78;;;-3.47;99.01
21129;BME280;10722;51.910;8.352;2022-11-20T08:31:00;100456.66;;;-3.54;98.91
21129;BME280;10722;51.910;8.352;2022-11-20T08:33:46;100454.88;;;-3.43;99.21
21129;BME280;10722;51.910;8.352;2022-11-20T08:36:33;100451.91;;;-3.38;98.83
21129;BME280;10722;51.910;8.352;2022-11-20T08:39:19;100452.72;;;-3.25;98.57
21129;BME280;10722;51.910;8.352;2022-11-20T08:42:07;100463.88;;;-3.35;98.64
21129;BME280;10722;51.910;8.352;2022-11-20T08:44:53;100464.72;;;-3.23;98.79
21129;BME280;10722;51.910;8.352;2022-11-20T08:47:38;100470.19;;;-3.17;98.55
21129;BME280;10722;51.910;8.352;2022-11-20T08:50:23;100460.84;;;-3.18;98.50
21129;BME280;10722;51.910;8.352;2022-11-20T08:53:08;100478.38;;;-2.96;99.00
21129;BME280;10722;51.910;8.352;2022-11-20T08:55:53;100475.38;;;-2.90;98.88
21129;BME280;10722;51.910;8.352;2022-11-20T08:58:38;100475.09;;;-2.81;98.61
21129;BME280;10722;51.910;8.352;2022-11-20T09:01:44;100471.63;;;-2.70;98.44
21129;BME280;10722;51.910;8.352;2022-11-20T09:04:28;100475.13;;;-2.68;98.39
21129;BME280;10722;51.910;8.352;2022-11-20T09:07:14;100456.56;;;-2.55;98.17
21129;BME280;10722;51.910;8.352;2022-11-20T09:09:59;100466.56;;;-2.70;98.69
21129;BME280;10722;51.910;8.352;2022-11-20T09:13:04;100461.28;;;-2.73;99.30
21129;BME280;10722;51.910;8.352;2022-11-20T09:15:57;100472.25;;;-2.86;99.98
21129;BME280;10722;51.910;8.352;2022-11-20T09:18:43;100481.50;;;-2.86;100.00
21129;BME280;10722;51.910;8.352;2022-11-20T09:21:32;100482.63;;;-2.69;100.00
21129;BME280;10722;51.910;8.352;2022-11-20T09:24:18;100479.91;;;-2.59;100.00
21129;BME280;10722;51.910;8.352;2022-11-20T09:27:04;100483.63;;;-2.54;100.00
21129;BME280;10722;51.910;8.352;2022-11-20T09:29:49;100482.88;;;-2.53;100.00
21129;BME280;10722;51.910;8.352;2022-11-20T09:32:35;100488.72;;;-2.41;100.00
21129;BME280;10722;51.910;8.352;2022-11-20T09:35:20;100489.72;;;-2.26;100.00
21129;BME280;10722;51.910;8.352;2022-11-20T09:38:09;100480.94;;;-2.17;100.00
21129;BME280;10722;51.910;8.352;2022-11-20T09:41:00;100485.34;;;-2.01;100.00
21129;BME280;10722;51.910;8.352;2022-11-20T09:50:23;100496.31;;;-1.48;100.00
21129;BME280;10722;51.910;8.352;2022-11-20T09:53:16;100486.88;;;-1.22;100.00
21129;BME280;10722;51.910;8.352;2022-11-20T09:56:10;100475.63;;;-1.13;100.00
21129;BME280;10722;51.910;8.352;2022-11-20T09:58:59;100465.75;;;-1.08;100.00
21129;BME280;10722;51.910;8.352;2022-11-20T10:01:47;100458.06;;;-0.95;100.00
21129;BME280;10722;51.910;8.352;2022-11-20T10:04:33;100445.72;;;-0.88;100.00
21129;BME280;10722;51.910;8.352;2022-11-20T10:10:26;100429.38;;;-0.49;100.00
21129;BME280;10722;51.910;8.352;2022-11-20T10:19:47;100404.22;;;0.02;98.60
21129;BME280;10722;51.910;8.352;2022-11-20T10:26:02;100399.41;;;-0.09;97.86
21129;BME280;10722;51.910;8.352;2022-11-20T10:31:52;100389.25;;;0.55;97.46
21129;BME280;10722;51.910;8.352;2022-11-20T10:37:35;100348.53;;;0.55;95.06
21129;BME280;10722;51.910;8.352;2022-11-20T10:40:38;100348.94;;;0.30;95.58
21129;BME280;10722;51.910;8.352;2022-11-20T10:43:32;100348.78;;;0.43;95.31
21129;BME280;10722;51.910;8.352;2022-11-20T10:46:20;100334.63;;;0.49;95.29
21129;BME280;10722;51.910;8.352;2022-11-20T10:49:13;100347.91;;;0.59;95.51
21129;BME280;10722;51.910;8.352;2022-11-20T10:52:09;100343.28;;;1.03;94.93
21129;BME280;10722;51.910;8.352;2022-11-20T10:58:54;100318.25;;;0.94;93.79
21129;BME280;10722;51.910;8.352;2022-11-20T11:01:17;100308.31;;;1.52;92.63
21129;BME280;10722;51.910;8.352;2022-11-20T11:07:30;100296.63;;;1.04;93.08
21129;BME280;10722;51.910;8.352;2022-11-20T11:13:30;100304.69;;;0.61;94.19
21129;BME280;10722;51.910;8.352;2022-11-20T11:16:21;100315.56;;;0.75;94.90
21129;BME280;10722;51.910;8.352;2022-11-20T11:19:13;100315.97;;;0.82;95.01
21129;BME280;10722;51.910;8.352;2022-11-20T11:21:59;100322.38;;;0.92;95.15
21129;BME280;10722;51.910;8.352;2022-11-20T11:24:52;100316.66;;;0.96;94.95
21129;BME280;10722;51.910;8.352;2022-11-20T11:27:48;100306.09;;;0.88;95.03
21129;BME280;10722;51.910;8.352;2022-11-20T11:30:44;100317.13;;;0.89;95.24
21129;BME280;10722;51.910;8.352;2022-11-20T11:33:31;100308.47;;;0.85;95.32
21129;BME280;10722;51.910;8.352;2022-11-20T11:36:20;100316.44;;;0.75;95.49
21129;BME280;10722;51.910;8.352;2022-11-20T11:39:14;100301.13;;;0.92;94.98
21129;BME280;10722;51.910;8.352;2022-11-20T11:42:01;100286.38;;;1.02;94.14
21129;BME280;10722;51.910;8.352;2022-11-20T11:44:47;100279.75;;;1.06;94.23
21129;BME280;10722;51.910;8.352;2022-11-20T11:47:43;100286.00;;;1.12;94.46
21129;BME280;10722;51.910;8.352;2022-11-20T11:50:29;100278.81;;;1.22;94.39
21129;BME280;10722;51.910;8.352;2022-11-20T11:53:19;100273.22;;;1.11;94.13
21129;BME280;10722;51.910;8.352;2022-11-20T11:56:09;100273.22;;;1.11;93.83
21129;BME280;10722;51.910;8.352;2022-11-20T11:58:57;100268.41;;;0.99;94.00
21129;BME280;10722;51.910;8.352;2022-11-20T12:02:02;100272.97;;;0.88;94.63
21129;BME280;10722;51.910;8.352;2022-11-20T12:04:54;100286.19;;;0.81;94.73
21129;BME280;10722;51.910;8.352;2022-11-20T12:07:45;100282.00;;;0.82;95.33
21129;BME280;10722;51.910;8.352;2022-11-20T12:11:06;100296.63;;;0.86;95.67
21129;BME280;10722;51.910;8.352;2022-11-20T12:14:09;100291.47;;;1.02;95.98
21129;BME280;10722;51.910;8.352;2022-11-20T12:16:58;100290.53;;;1.18;96.07
21129;BME280;10722;51.910;8.352;2022-11-20T12:19:43;100291.56;;;1.40;95.86
21129;BME280;10722;51.910;8.352;2022-11-20T12:22:44;100270.53;;;1.63;95.04
21129;BME280;10722;51.910;8.352;2022-11-20T12:25:34;100254.88;;;1.73;94.05
21129;BME280;10722;51.910;8.352;2022-11-20T12:31:34;100222.59;;;2.32;92.10
21129;BME280;10722;51.910;8.352;2022-11-20T12:37:14;100181.19;;;1.79;90.62
21129;BME280;10722;51.910;8.352;2022-11-20T12:43:23;100222.19;;;1.27;92.99
21129;BME280;10722;51.910;8.352;2022-11-20T12:46:20;100240.81;;;1.26;93.85
21129;BME280;10722;51.910;8.352;2022-11-20T13:07:24;100136.66;;;2.97;88.33
21129;BME280;10722;51.910;8.352;2022-11-20T13:10:20;100101.41;;;3.33;87.20
21129;BME280;10722;51.910;8.352;2022-11-20T13:16:08;100033.13;;;5.19;81.38
21129;BME280;10722;51.910;8.352;2022-11-20T13:19:03;99950.72;;;4.46;79.35
21129;BME280;10722;51.910;8.352;2022-11-20T13:21:50;99970.72;;;4.02;79.75
21129;BME280;10722;51.910;8.352;2022-11-20T13:24:35;100000.66;;;4.32;80.03
21129;BME280;10722;51.910;8.352;2022-11-20T13:27:22;100002.38;;;3.53;80.68
21129;BME280;10722;51.910;8.352;2022-11-20T13:30:21;100042.84;;;2.71;82.73
21129;BME280;10722;51.910;8.352;2022-11-20T13:33:23;100092.25;;;2.50;84.34
21129;BME280;10722;51.910;8.352;2022-11-20T13:36:28;100102.34;;;2.47;84.94
21129;BME280;10722;51.910;8.352;2022-11-20T13:39:26;100122.38;;;2.59;85.90
21129;BME280;10722;51.910;8.352;2022-11-20T13:45:02;100072.22;;;3.04;84.11
21129;BME280;10722;51.910;8.352;2022-11-20T13:47:49;100031.34;;;2.82;83.41
21129;BME280;10722;51.910;8.352;2022-11-20T13:59:46;100028.59;;;3.00;84.36
21129;BME280;10722;51.910;8.352;2022-11-20T14:02:34;100014.31;;;3.05;83.37
21129;BME280;10722;51.910;8.352;2022-11-20T14:05:23;100022.66;;;3.01;83.43
21129;BME280;10722;51.910;8.352;2022-11-20T14:08:14;100017.63;;;2.57;84.21
21129;BME280;10722;51.910;8.352;2022-11-20T14:11:17;100032.63;;;2.48;85.09
21129;BME280;10722;51.910;8.352;2022-11-20T14:14:03;100045.19;;;2.43;85.97
21129;BME280;10722;51.910;8.352;2022-11-20T14:16:50;100063.63;;;2.36;86.77
21129;BME280;10722;51.910;8.352;2022-11-20T14:19:36;100068.88;;;2.39;87.16
21129;BME280;10722;51.910;8.352;2022-11-20T14:22:27;100071.13;;;2.32;87.74
21129;BME280;10722;51.910;8.352;2022-11-20T14:25:23;100051.75;;;2.16;87.63
21129;BME280;10722;51.910;8.352;2022-11-20T14:28:21;100068.88;;;2.18;88.12
21129;BME280;10722;51.910;8.352;2022-11-20T14:31:18;100073.66;;;2.11;88.49
21129;BME280;10722;51.910;8.352;2022-11-20T14:34:14;100079.81;;;2.16;88.53
21129;BME280;10722;51.910;8.352;2022-11-20T14:37:04;100074.09;;;2.21;88.72
21129;BME280;10722;51.910;8.352;2022-11-20T14:39:53;100077.50;;;2.22;88.85
21129;BME280;10722;51.910;8.352;2022-11-20T14:42:43;100072.59;;;2.27;88.69
21129;BME280;10722;51.910;8.352;2022-11-20T14:45:28;100068.75;;;2.15;88.69
21129;BME280;10722;51.910;8.352;2022-11-20T14:48:14;100067.50;;;2.06;88.92
21129;BME280;10722;51.910;8.352;2022-11-20T14:51:00;100069.03;;;2.02;89.61
21129;BME280;10722;51.910;8.352;2022-11-20T14:53:46;100068.63;;;2.12;89.47
21129;BME280;10722;51.910;8.352;2022-11-20T14:56:30;100048.22;;;2.12;88.87
21129;BME280;10722;51.910;8.352;2022-11-20T14:59:23;100048.50;;;1.99;89.33
21129;BME280;10722;51.910;8.352;2022-11-20T15:02:11;100056.03;;;1.96;90.03
21129;BME280;10722;51.910;8.352;2022-11-20T15:04:58;100060.31;;;1.97;90.22
21129;BME280;10722;51.910;8.352;2022-11-20T15:07:46;100041.16;;;2.07;89.90
21129;BME280;10722;51.910;8.352;2022-11-20T15:10:32;100035.75;;;1.99;89.64
21129;BME280;10722;51.910;8.352;2022-11-20T15:17:39;100020.19;;;1.93;89.71
21129;BME280;10722;51.910;8.352;2022-11-20T15:20:29;100016.81;;;1.94;89.24
21129;BME280;10722;51.910;8.352;2022-11-20T15:23:18;100010.97;;;1.96;89.11
21129;BME280;10722;51.910;8.352;2022-11-20T15:26:11;100005.00;;;1.96;88.80
21129;BME280;10722;51.910;8.352;2022-11-20T15:29:03;99999.72;;;1.91;88.84
21129;BME280;10722;51.910;8.352;2022-11-20T15:31:49;99992.22;;;1.94;89.21
21129;BME280;10722;51.910;8.352;2022-11-20T15:34:34;99998.94;;;1.92;89.34
21129;BME280;10722;51.910;8.352;2022-11-20T15:37:19;99996.28;;;1.91;89.30
21129;BME280;10722;51.910;8.352;2022-11-20T15:40:10;100007.13;;;2.06;89.08
21129;BME280;10722;51.910;8.352;2022-11-20T15:42:55;100007.44;;;1.93;89.63
21129;BME280;10722;51.910;8.352;2022-11-20T15:45:45;100018.50;;;1.93;89.59
21129;BME280;10722;51.910;8.352;2022-11-20T15:48:51;99991.31;;;1.94;89.10
21129;BME280;10722;51.910;8.352;2022-11-20T15:51:38;99992.44;;;1.79;89.98
21129;BME280;10722;51.910;8.352;2022-11-20T15:54:24;99998.69;;;1.86;90.21
21129;BME280;10722;51.910;8.352;2022-11-20T15:57:09;100006.34;;;1.86;90.37
21129;BME280;10722;51.910;8.352;2022-11-20T16:00:00;100005.00;;;1.96;90.00